sensor_id;sensor_type;location;lat;lon;timestamp;P1;durP1;ratioP1;P2;durP2;ratioP2
239;SDS011;104;53.590;10.004;2023-08-01T00:01:57;104.50;;;99.47;;
239;SDS011;104;53.590;10.004;2023-08-01T00:04:25;100.20;;;95.37;;
239;SDS011;104;53.590;10.004;2023-08-01T00:06:52;118.87;;;113.17;;
239;SDS011;104;53.590;10.004;2023-08-01T00:09:20;127.77;;;121.63;;
239;SDS011;104;53.590;10.004;2023-08-01T00:11:49;124.30;;;118.30;;
239;SDS011;104;53.590;10.004;2023-08-01T00:14:16;124.17;;;118.17;;
239;SDS011;104;53.590;10.004;2023-08-01T00:16:45;119.50;;;113.80;;
239;SDS011;104;53.590;10.004;2023-08-01T00:19:13;139.67;;;132.97;;
239;SDS011;104;53.590;10.004;2023-08-01T00:21:40;129.20;;;123.00;;
239;SDS011;104;53.590;10.004;2023-08-01T00:24:07;144.10;;;137.20;;
239;SDS011;104;53.590;10.004;2023-08-01T00:26:35;115.97;;;110.40;;
239;SDS011;104;53.590;10.004;2023-08-01T00:29:03;117.33;;;111.73;;
239;SDS011;104;53.590;10.004;2023-08-01T00:31:31;96.93;;;92.27;;
239;SDS011;104;53.590;10.004;2023-08-01T00:33:58;116.03;;;110.47;;
239;SDS011;104;53.590;10.004;2023-08-01T00:36:25;118.23;;;112.53;;
239;SDS011;104;53.590;10.004;2023-08-01T00:38:52;118.77;;;113.07;;
239;SDS011;104;53.590;10.004;2023-08-01T00:41:20;145.10;;;138.10;;
239;SDS011;104;53.590;10.004;2023-08-01T00:43:47;110.43;;;105.13;;
239;SDS011;104;53.590;10.004;2023-08-01T00:46:16;138.40;;;131.77;;
239;SDS011;104;53.590;10.004;2023-08-01T00:48:43;128.83;;;122.67;;
239;SDS011;104;53.590;10.004;2023-08-01T00:51:10;118.30;;;112.63;;
239;SDS011;104;53.590;10.004;2023-08-01T00:53:38;120.13;;;114.37;;
239;SDS011;104;53.590;10.004;2023-08-01T00:56:06;87.53;;;83.33;;
239;SDS011;104;53.590;10.004;2023-08-01T00:58:33;98.90;;;94.10;;
239;SDS011;104;53.590;10.004;2023-08-01T01:01:01;85.40;;;81.30;;
239;SDS011;104;53.590;10.004;2023-08-01T01:03:30;90.70;;;86.20;;
239;SDS011;104;53.590;10.004;2023-08-01T01:06:00;95.50;;;88.43;;
239;SDS011;104;53.590;10.004;2023-08-01T01:08:28;87.90;;;83.67;;
239;SDS011;104;53.590;10.004;2023-08-01T01:10:55;91.83;;;87.40;;
239;SDS011;104;53.590;10.004;2023-08-01T01:13:23;83.80;;;79.77;;
239;SDS011;104;53.590;10.004;2023-08-01T01:15:50;89.07;;;84.80;;
239;SDS011;104;53.590;10.004;2023-08-01T01:18:18;86.03;;;81.00;;
239;SDS011;104;53.590;10.004;2023-08-01T01:20:46;109.93;;;104.67;;
239;SDS011;104;53.590;10.004;2023-08-01T01:23:13;118.63;;;112.93;;
239;SDS011;104;53.590;10.004;2023-08-01T01:25:41;111.23;;;105.90;;
239;SDS011;104;53.590;10.004;2023-08-01T01:28:08;101.30;;;96.43;;
239;SDS011;104;53.590;10.004;2023-08-01T01:30:36;99.30;;;94.10;;
239;SDS011;104;53.590;10.004;2023-08-01T01:33:04;118.60;;;112.90;;
239;SDS011;104;53.590;10.004;2023-08-01T01:35:33;97.60;;;92.93;;
239;SDS011;104;53.590;10.004;2023-08-01T01:38:02;95.33;;;90.73;;
239;SDS011;104;53.590;10.004;2023-08-01T01:40:29;114.50;;;107.13;;
239;SDS011;104;53.590;10.004;2023-08-01T01:42:57;98.13;;;87.30;;
239;SDS011;104;53.590;10.004;2023-08-01T01:45:24;102.70;;;89.50;;
239;SDS011;104;53.590;10.004;2023-08-01T01:47:51;91.90;;;80.97;;
239;SDS011;104;53.590;10.004;2023-08-01T01:50:19;85.27;;;73.13;;
239;SDS011;104;53.590;10.004;2023-08-01T01:52:46;86.40;;;75.87;;
239;SDS011;104;53.590;10.004;2023-08-01T01:55:15;129.53;;;123.33;;
239;SDS011;104;53.590;10.004;2023-08-01T01:57:42;120.60;;;114.80;;
239;SDS011;104;53.590;10.004;2023-08-01T02:00:10;127.80;;;101.00;;
239;SDS011;104;53.590;10.004;2023-08-01T02:02:37;87.70;;;79.20;;
239;SDS011;104;53.590;10.004;2023-08-01T02:05:05;99.67;;;94.43;;
239;SDS011;104;53.590;10.004;2023-08-01T02:07:32;92.27;;;82.53;;
239;SDS011;104;53.590;10.004;2023-08-01T02:09:59;78.67;;;69.90;;
239;SDS011;104;53.590;10.004;2023-08-01T02:12:28;108.77;;;100.63;;
239;SDS011;104;53.590;10.004;2023-08-01T02:14:56;81.63;;;77.73;;
239;SDS011;104;53.590;10.004;2023-08-01T02:17:24;89.40;;;85.10;;
239;SDS011;104;53.590;10.004;2023-08-01T02:19:51;86.70;;;77.37;;
239;SDS011;104;53.590;10.004;2023-08-01T02:22:18;96.07;;;81.97;;
239;SDS011;104;53.590;10.004;2023-08-01T02:24:45;80.07;;;63.63;;
239;SDS011;104;53.590;10.004;2023-08-01T02:27:13;84.27;;;68.20;;
239;SDS011;104;53.590;10.004;2023-08-01T02:29:41;88.50;;;84.23;;
239;SDS011;104;53.590;10.004;2023-08-01T02:32:09;104.37;;;99.37;;
239;SDS011;104;53.590;10.004;2023-08-01T02:34:36;93.47;;;79.27;;
239;SDS011;104;53.590;10.004;2023-08-01T02:37:04;88.60;;;84.33;;
239;SDS011;104;53.590;10.004;2023-08-01T02:39:31;80.60;;;72.67;;
239;SDS011;104;53.590;10.004;2023-08-01T02:41:58;107.70;;;82.87;;
239;SDS011;104;53.590;10.004;2023-08-01T02:44:26;101.90;;;82.87;;
239;SDS011;104;53.590;10.004;2023-08-01T02:46:55;122.53;;;92.33;;
239;SDS011;104;53.590;10.004;2023-08-01T02:49:22;95.00;;;76.23;;
239;SDS011;104;53.590;10.004;2023-08-01T02:51:49;95.87;;;83.33;;
239;SDS011;104;53.590;10.004;2023-08-01T02:54:16;113.37;;;95.47;;
239;SDS011;104;53.590;10.004;2023-08-01T02:56:44;108.13;;;101.30;;
239;SDS011;104;53.590;10.004;2023-08-01T02:59:11;105.90;;;85.40;;
239;SDS011;104;53.590;10.004;2023-08-01T03:01:38;146.50;;;80.97;;
239;SDS011;104;53.590;10.004;2023-08-01T03:04:07;111.03;;;92.13;;
239;SDS011;104;53.590;10.004;2023-08-01T03:06:37;98.40;;;75.10;;
239;SDS011;104;53.590;10.004;2023-08-01T04:20:29;88.83;;;59.27;;
239;SDS011;104;53.590;10.004;2023-08-01T04:22:57;98.17;;;50.43;;
239;SDS011;104;53.590;10.004;2023-08-01T04:25:24;88.13;;;54.80;;
239;SDS011;104;53.590;10.004;2023-08-01T07:15:50;155.37;;;147.90;;
239;SDS011;104;53.590;10.004;2023-08-01T07:18:17;133.17;;;126.77;;
239;SDS011;104;53.590;10.004;2023-08-01T07:20:45;137.50;;;130.30;;
239;SDS011;104;53.590;10.004;2023-08-01T07:23:12;161.87;;;154.10;;
239;SDS011;104;53.590;10.004;2023-08-01T07:25:39;144.43;;;137.50;;
239;SDS011;104;53.590;10.004;2023-08-01T07:28:06;175.33;;;166.93;;
239;SDS011;104;53.590;10.004;2023-08-01T07:30:33;152.37;;;138.90;;
239;SDS011;104;53.590;10.004;2023-08-01T07:33:02;159.83;;;152.17;;
239;SDS011;104;53.590;10.004;2023-08-01T07:35:29;153.83;;;146.43;;
239;SDS011;104;53.590;10.004;2023-08-01T07:37:57;155.83;;;148.33;;
239;SDS011;104;53.590;10.004;2023-08-01T07:40:24;195.57;;;186.20;;
239;SDS011;104;53.590;10.004;2023-08-01T07:42:51;173.50;;;165.20;;
239;SDS011;104;53.590;10.004;2023-08-01T07:45:18;157.07;;;149.53;;
239;SDS011;104;53.590;10.004;2023-08-01T07:47:46;196.57;;;187.13;;
239;SDS011;104;53.590;10.004;2023-08-01T07:50:15;187.57;;;178.57;;
239;SDS011;104;53.590;10.004;2023-08-01T07:52:43;215.13;;;204.83;;
239;SDS011;104;53.590;10.004;2023-08-01T07:55:10;221.67;;;211.03;;
239;SDS011;104;53.590;10.004;2023-08-01T07:57:37;231.90;;;220.80;;
239;SDS011;104;53.590;10.004;2023-08-01T08:00:05;238.70;;;227.27;;
239;SDS011;104;53.590;10.004;2023-08-01T08:02:34;220.87;;;210.30;;
239;SDS011;104;53.590;10.004;2023-08-01T08:05:01;251.40;;;239.40;;
239;SDS011;104;53.590;10.004;2023-08-01T08:07:30;272.70;;;259.67;;
239;SDS011;104;53.590;10.004;2023-08-01T08:09:57;285.17;;;271.57;;
239;SDS011;104;53.590;10.004;2023-08-01T08:12:24;271.83;;;258.87;;
239;SDS011;104;53.590;10.004;2023-08-01T08:14:51;264.97;;;252.30;;
239;SDS011;104;53.590;10.004;2023-08-01T08:17:19;261.37;;;248.87;;
239;SDS011;104;53.590;10.004;2023-08-01T08:19:46;274.93;;;261.80;;
239;SDS011;104;53.590;10.004;2023-08-01T08:22:13;291.97;;;275.37;;
239;SDS011;104;53.590;10.004;2023-08-01T08:24:42;294.73;;;280.67;;
239;SDS011;104;53.590;10.004;2023-08-01T08:27:09;304.83;;;290.27;;
239;SDS011;104;53.590;10.004;2023-08-01T08:29:36;282.70;;;269.20;;
239;SDS011;104;53.590;10.004;2023-08-01T08:32:04;263.27;;;250.67;;
239;SDS011;104;53.590;10.004;2023-08-01T08:34:31;249.23;;;237.30;;
239;SDS011;104;53.590;10.004;2023-08-01T08:36:58;259.77;;;247.33;;
239;SDS011;104;53.590;10.004;2023-08-01T08:39:26;266.93;;;254.17;;
239;SDS011;104;53.590;10.004;2023-08-01T08:41:55;244.63;;;232.93;;
239;SDS011;104;53.590;10.004;2023-08-01T08:44:22;288.17;;;274.40;;
239;SDS011;104;53.590;10.004;2023-08-01T08:46:50;282.97;;;269.43;;
239;SDS011;104;53.590;10.004;2023-08-01T08:49:18;287.63;;;273.43;;
239;SDS011;104;53.590;10.004;2023-08-01T08:51:47;276.50;;;263.27;;
239;SDS011;104;53.590;10.004;2023-08-01T08:54:15;284.07;;;270.50;;
239;SDS011;104;53.590;10.004;2023-08-01T08:56:42;293.87;;;279.80;;
239;SDS011;104;53.590;10.004;2023-08-01T08:59:11;268.03;;;255.23;;
239;SDS011;104;53.590;10.004;2023-08-01T09:01:39;288.13;;;274.37;;
239;SDS011;104;53.590;10.004;2023-08-01T09:04:06;287.73;;;273.97;;
239;SDS011;104;53.590;10.004;2023-08-01T09:06:35;266.03;;;253.33;;
239;SDS011;104;53.590;10.004;2023-08-01T09:09:04;293.10;;;279.10;;
239;SDS011;104;53.590;10.004;2023-08-01T09:11:41;321.27;;;305.90;;
239;SDS011;104;53.590;10.004;2023-08-01T09:14:09;281.43;;;267.97;;
239;SDS011;104;53.590;10.004;2023-08-01T09:16:39;317.57;;;302.40;;
239;SDS011;104;53.590;10.004;2023-08-01T09:19:07;295.43;;;281.30;;
239;SDS011;104;53.590;10.004;2023-08-01T09:21:35;292.87;;;278.90;;
239;SDS011;104;53.590;10.004;2023-08-01T09:24:07;289.17;;;275.37;;
239;SDS011;104;53.590;10.004;2023-08-01T09:26:35;299.47;;;278.97;;
239;SDS011;104;53.590;10.004;2023-08-01T09:29:03;293.23;;;276.70;;
239;SDS011;104;53.590;10.004;2023-08-01T09:31:30;290.43;;;276.57;;
239;SDS011;104;53.590;10.004;2023-08-01T09:34:00;288.17;;;274.40;;
239;SDS011;104;53.590;10.004;2023-08-01T12:00:25;559.27;;;377.33;;
239;SDS011;104;53.590;10.004;2023-08-01T12:03:02;409.63;;;375.93;;
239;SDS011;104;53.590;10.004;2023-08-01T12:05:30;415.53;;;374.77;;
239;SDS011;104;53.590;10.004;2023-08-01T12:08:07;427.17;;;386.67;;
239;SDS011;104;53.590;10.004;2023-08-01T12:10:36;471.53;;;415.13;;
239;SDS011;104;53.590;10.004;2023-08-01T12:13:04;422.13;;;380.53;;
239;SDS011;104;53.590;10.004;2023-08-01T12:15:32;433.47;;;371.23;;
239;SDS011;104;53.590;10.004;2023-08-01T12:18:00;291.13;;;277.23;;
239;SDS011;104;53.590;10.004;2023-08-01T12:20:27;264.40;;;251.80;;
239;SDS011;104;53.590;10.004;2023-08-01T12:22:54;285.37;;;271.77;;
239;SDS011;104;53.590;10.004;2023-08-01T12:25:21;309.83;;;266.43;;
239;SDS011;104;53.590;10.004;2023-08-01T12:27:48;274.30;;;261.17;;
239;SDS011;104;53.590;10.004;2023-08-01T12:30:16;285.47;;;271.83;;
239;SDS011;104;53.590;10.004;2023-08-01T12:32:44;384.00;;;258.57;;
239;SDS011;104;53.590;10.004;2023-08-01T12:35:11;285.73;;;272.07;;
239;SDS011;104;53.590;10.004;2023-08-01T12:37:39;304.60;;;290.03;;
239;SDS011;104;53.590;10.004;2023-08-01T12:40:07;337.80;;;297.13;;
239;SDS011;104;53.590;10.004;2023-08-01T12:42:35;383.80;;;286.97;;
239;SDS011;104;53.590;10.004;2023-08-01T12:45:03;307.03;;;284.97;;
239;SDS011;104;53.590;10.004;2023-08-01T12:47:37;296.47;;;282.27;;
239;SDS011;104;53.590;10.004;2023-08-01T12:50:07;313.20;;;282.87;;
239;SDS011;104;53.590;10.004;2023-08-01T12:52:35;327.53;;;311.90;;
239;SDS011;104;53.590;10.004;2023-08-01T12:55:03;320.67;;;304.30;;
239;SDS011;104;53.590;10.004;2023-08-01T12:57:31;361.17;;;343.90;;
239;SDS011;104;53.590;10.004;2023-08-01T12:59:59;415.97;;;371.30;;
239;SDS011;104;53.590;10.004;2023-08-01T13:02:27;543.97;;;484.97;;
239;SDS011;104;53.590;10.004;2023-08-01T13:04:55;803.50;;;571.13;;
239;SDS011;104;53.590;10.004;2023-08-01T13:07:24;957.33;;;582.10;;
239;SDS011;104;53.590;10.004;2023-08-01T13:09:52;887.53;;;587.40;;
239;SDS011;104;53.590;10.004;2023-08-01T13:12:20;892.57;;;600.83;;
239;SDS011;104;53.590;10.004;2023-08-01T13:14:47;816.23;;;583.87;;
239;SDS011;104;53.590;10.004;2023-08-01T13:17:15;560.40;;;491.63;;
239;SDS011;104;53.590;10.004;2023-08-01T13:19:42;480.73;;;417.43;;
239;SDS011;104;53.590;10.004;2023-08-01T13:22:10;419.23;;;391.90;;
239;SDS011;104;53.590;10.004;2023-08-01T13:24:39;400.37;;;378.37;;
239;SDS011;104;53.590;10.004;2023-08-01T13:27:07;406.97;;;375.67;;
239;SDS011;104;53.590;10.004;2023-08-01T13:29:35;419.37;;;385.47;;
239;SDS011;104;53.590;10.004;2023-08-01T13:32:02;375.80;;;353.03;;
239;SDS011;104;53.590;10.004;2023-08-01T13:34:36;383.43;;;362.53;;
239;SDS011;104;53.590;10.004;2023-08-01T13:37:04;431.13;;;398.37;;
239;SDS011;104;53.590;10.004;2023-08-01T13:39:31;326.83;;;288.90;;
239;SDS011;104;53.590;10.004;2023-08-01T13:42:00;285.77;;;272.10;;
239;SDS011;104;53.590;10.004;2023-08-01T13:44:27;268.27;;;255.47;;
239;SDS011;104;53.590;10.004;2023-08-01T13:46:55;397.77;;;260.40;;
239;SDS011;104;53.590;10.004;2023-08-01T13:49:23;289.13;;;275.33;;
239;SDS011;104;53.590;10.004;2023-08-01T13:51:51;301.30;;;240.77;;
239;SDS011;104;53.590;10.004;2023-08-01T13:54:18;271.87;;;258.87;;
239;SDS011;104;53.590;10.004;2023-08-01T13:56:48;274.87;;;261.73;;
239;SDS011;104;53.590;10.004;2023-08-01T13:59:17;282.50;;;269.00;;
239;SDS011;104;53.590;10.004;2023-08-01T14:01:44;255.43;;;243.23;;
239;SDS011;104;53.590;10.004;2023-08-01T14:04:12;282.60;;;267.83;;
239;SDS011;104;53.590;10.004;2023-08-01T14:06:39;315.03;;;299.97;;
239;SDS011;104;53.590;10.004;2023-08-01T14:09:07;295.60;;;281.50;;
239;SDS011;104;53.590;10.004;2023-08-01T14:11:35;440.47;;;306.00;;
239;SDS011;104;53.590;10.004;2023-08-01T14:16:53;338.70;;;322.53;;
239;SDS011;104;53.590;10.004;2023-08-01T14:19:21;328.47;;;312.77;;
239;SDS011;104;53.590;10.004;2023-08-01T14:21:48;314.70;;;299.67;;
239;SDS011;104;53.590;10.004;2023-08-01T14:24:15;329.80;;;314.03;;
239;SDS011;104;53.590;10.004;2023-08-01T14:26:42;377.00;;;353.67;;
239;SDS011;104;53.590;10.004;2023-08-01T18:12:27;48.83;;;39.50;;
239;SDS011;104;53.590;10.004;2023-08-01T18:14:55;46.90;;;44.60;;
239;SDS011;104;53.590;10.004;2023-08-01T18:17:23;25.30;;;14.53;;
239;SDS011;104;53.590;10.004;2023-08-01T18:19:51;18.87;;;9.13;;
239;SDS011;104;53.590;10.004;2023-08-01T18:22:19;14.00;;;6.33;;
